createdAt,value
2018-12-17T05:45:56.814Z,34.47
2018-12-17T05:48:25.196Z,32.53
2018-12-17T05:50:53.650Z,34.47
2018-12-17T05:53:22.174Z,42.97
2018-12-17T05:55:50.677Z,49.67
2018-12-17T05:58:19.089Z,42.30
2018-12-17T06:00:47.459Z,40.73
2018-12-17T06:03:16.605Z,38.50
2018-12-17T06:05:45.680Z,45.07
2018-12-17T06:08:14.188Z,42.13
2018-12-17T06:10:43.059Z,41.87
2018-12-17T06:13:11.432Z,40.57
2018-12-17T06:15:39.814Z,37.87
2018-12-17T06:18:08.223Z,32.40
2018-12-17T06:20:36.887Z,32.30
2018-12-17T06:23:05.776Z,30.57
2018-12-17T06:25:34.675Z,33.40
2018-12-17T06:28:03.213Z,35.37
2018-12-17T06:30:31.923Z,35.57
2018-12-17T06:33:00.571Z,35.37
2018-12-17T06:35:29.297Z,36.00
2018-12-17T06:37:57.981Z,38.10
2018-12-17T06:40:26.634Z,36.70
2018-12-17T06:42:55.406Z,33.07
2018-12-17T06:45:24.070Z,35.53
2018-12-17T06:47:52.699Z,35.93
2018-12-17T06:50:21.723Z,35.13
2018-12-17T06:52:50.105Z,33.63
2018-12-17T06:55:19.253Z,31.43
2018-12-17T06:57:48.381Z,40.30
2018-12-17T07:00:16.761Z,34.40
2018-12-17T07:02:45.440Z,40.10
2018-12-17T07:05:13.833Z,36.10
2018-12-17T07:07:42.221Z,38.87
2018-12-17T07:10:10.638Z,40.13
2018-12-17T07:12:39.032Z,48.57
2018-12-17T07:15:07.691Z,51.50
2018-12-17T07:17:36.548Z,47.27
2018-12-17T07:20:05.952Z,55.30
2018-12-17T07:22:34.416Z,50.30
2018-12-17T07:25:03.528Z,47.00
2018-12-17T07:27:31.936Z,46.20
2018-12-17T07:30:00.728Z,44.57
2018-12-17T07:32:29.095Z,46.30
2018-12-17T07:34:58.147Z,48.63
2018-12-17T07:37:26.652Z,42.90
2018-12-17T07:39:55.526Z,41.37
2018-12-17T07:42:24.718Z,49.63
2018-12-17T07:44:53.108Z,52.77
2018-12-17T07:47:21.788Z,54.73
2018-12-17T07:49:50.229Z,62.77
2018-12-17T07:52:19.149Z,62.27
2018-12-17T07:54:48.215Z,59.63
2018-12-17T07:57:16.894Z,55.23
2018-12-17T07:59:45.836Z,58.17
2018-12-17T08:02:14.240Z,51.27
2018-12-17T08:04:42.964Z,50.47
2018-12-17T08:07:11.735Z,57.87
2018-12-17T08:09:40.267Z,49.20
2018-12-17T08:12:09.004Z,39.00
2018-12-17T08:14:37.600Z,45.77
2018-12-17T08:17:06.533Z,43.83
2018-12-17T08:19:35.212Z,45.50
2018-12-17T08:22:03.754Z,42.93
2018-12-17T08:24:32.380Z,48.30
2018-12-17T08:27:00.818Z,47.43
2018-12-17T08:29:29.206Z,50.67
2018-12-17T08:31:57.855Z,47.97
2018-12-17T08:34:27.313Z,48.90
2018-12-17T08:36:55.771Z,48.30
2018-12-17T08:39:24.175Z,48.90
2018-12-17T08:41:52.569Z,45.47
2018-12-17T08:44:21.170Z,50.07
2018-12-17T08:46:49.988Z,48.17
2018-12-17T08:49:19.052Z,40.77
2018-12-17T08:51:47.476Z,42.03
2018-12-17T08:54:16.032Z,43.27
2018-12-17T08:56:44.946Z,45.97
2018-12-17T08:59:13.678Z,35.20
2018-12-17T09:01:42.772Z,34.60
2018-12-17T09:04:11.652Z,38.93
2018-12-17T09:06:40.214Z,40.50
2018-12-17T09:09:09.677Z,38.83
2018-12-17T09:11:38.042Z,43.77
2018-12-17T09:14:06.511Z,47.00
2018-12-17T09:16:34.926Z,49.23
2018-12-17T09:19:03.865Z,39.43
2018-12-17T09:21:33.090Z,53.10
2018-12-17T09:24:01.788Z,55.87
2018-12-17T09:26:30.322Z,49.83
2018-12-17T09:28:58.825Z,45.93
2018-12-17T09:31:27.252Z,55.67
2018-12-17T09:33:55.879Z,66.90
2018-12-17T09:36:24.308Z,56.53
2018-12-17T09:38:52.754Z,83.70
2018-12-17T09:41:21.449Z,86.57
2018-12-17T09:43:50.138Z,94.63
2018-12-17T09:46:18.562Z,83.93
2018-12-17T09:48:46.984Z,118.77
2018-12-17T09:51:19.606Z,86.43
2018-12-17T09:53:46.578Z,104.50
2018-12-17T09:56:15.287Z,144.70
2018-12-17T09:58:43.695Z,86.73
2018-12-17T10:01:12.157Z,99.53
2018-12-17T10:03:41.869Z,188.67
2018-12-17T10:06:11.378Z,117.57
2018-12-17T10:08:40.808Z,136.67
2018-12-17T10:11:09.705Z,138.30
2018-12-17T10:13:38.458Z,94.30
2018-12-17T10:16:06.975Z,89.40
2018-12-17T10:18:36.988Z,76.60
2018-12-17T10:21:05.785Z,92.00
2018-12-17T10:23:34.591Z,90.13
2018-12-17T10:26:03.390Z,94.20
2018-12-17T10:28:32.210Z,73.93
2018-12-17T10:31:00.642Z,82.27
2018-12-17T10:33:30.758Z,69.47
2018-12-17T10:35:59.180Z,72.50
2018-12-17T10:38:28.169Z,64.50
2018-12-17T10:40:56.562Z,58.23
2018-12-17T10:43:25.197Z,51.93
2018-12-17T10:45:53.620Z,59.67
2018-12-17T10:48:23.518Z,54.77
2018-12-17T10:50:52.213Z,62.53
2018-12-17T10:53:20.656Z,52.80
2018-12-17T10:55:49.089Z,52.83
2018-12-17T10:58:18.146Z,52.83
2018-12-17T11:00:52.236Z,47.83
2018-12-17T11:03:40.300Z,48.27
2018-12-17T11:06:14.434Z,45.97
2018-12-17T11:08:43.095Z,41.80
2018-12-17T11:11:11.548Z,47.87
2018-12-17T11:13:39.945Z,47.10
2018-12-17T11:16:08.361Z,47.20
2018-12-17T11:18:37.188Z,44.47
2018-12-17T11:21:05.775Z,44.07
2018-12-17T11:23:34.302Z,39.90
2018-12-17T11:26:03.001Z,43.33
2018-12-17T11:28:31.983Z,42.37
2018-12-17T11:31:00.715Z,38.80
2018-12-17T11:33:29.493Z,35.00
2018-12-17T11:35:58.017Z,33.97
2018-12-17T11:38:27.167Z,29.07
2018-12-17T11:40:56.057Z,24.00
2018-12-17T11:43:25.386Z,22.77
2018-12-17T11:45:53.868Z,20.53
2018-12-17T11:48:25.166Z,17.70
2018-12-17T11:50:53.865Z,17.00
2018-12-17T11:53:22.991Z,17.20
2018-12-17T11:55:51.372Z,16.67
2018-12-17T11:58:20.451Z,16.37
2018-12-17T12:01:06.801Z,16.63
2018-12-17T12:03:39.086Z,16.67
2018-12-17T12:06:13.873Z,17.30
2018-12-17T12:08:38.810Z,16.33
2018-12-17T12:11:07.673Z,20.07
2018-12-17T12:13:36.084Z,21.53
2018-12-17T12:16:04.530Z,18.53
2018-12-17T12:18:33.038Z,21.23
2018-12-17T12:21:02.205Z,19.17
2018-12-17T12:23:30.777Z,18.80
2018-12-17T12:25:59.705Z,20.63
2018-12-17T12:28:28.396Z,18.23
2018-12-17T12:31:00.511Z,19.50
2018-12-17T12:33:28.827Z,18.97
2018-12-17T12:35:57.599Z,20.63
2018-12-17T12:38:26.180Z,19.23
2018-12-17T12:40:54.879Z,17.70
2018-12-17T12:43:23.876Z,20.97
2018-12-17T12:45:53.748Z,19.00
2018-12-17T12:48:22.406Z,21.40
2018-12-17T12:50:53.987Z,19.63
2018-12-17T12:56:17.470Z,20.50
2018-12-17T12:58:46.368Z,21.53
2018-12-17T13:01:14.844Z,18.30
2018-12-17T13:03:44.194Z,19.23
2018-12-17T13:06:12.827Z,19.10
2018-12-17T13:08:41.722Z,18.33
2018-12-17T13:11:10.506Z,18.17
2018-12-17T13:13:38.896Z,19.30
2018-12-17T13:16:07.489Z,21.27
2018-12-17T13:18:36.286Z,23.57
2018-12-17T13:21:04.863Z,18.37
2018-12-17T13:23:33.887Z,21.27
2018-12-17T13:26:02.898Z,22.87
2018-12-17T13:28:31.572Z,23.13
2018-12-17T13:31:00.214Z,23.43
2018-12-17T13:33:29.844Z,22.70
2018-12-17T13:35:58.526Z,23.47
2018-12-17T13:38:26.947Z,21.10
2018-12-17T13:40:55.647Z,21.23
2018-12-17T13:43:24.275Z,20.80
2018-12-17T13:45:53.022Z,20.97
2018-12-17T13:48:22.017Z,19.60
2018-12-17T13:50:51.985Z,22.13
2018-12-17T13:53:26.104Z,20.97
2018-12-17T13:55:54.752Z,22.37
2018-12-17T13:58:23.176Z,20.20
2018-12-17T14:00:51.713Z,24.87
2018-12-17T14:03:20.787Z,23.00
2018-12-17T14:05:49.571Z,23.67
2018-12-17T14:08:17.959Z,24.07
2018-12-17T14:10:50.712Z,22.83
2018-12-17T14:13:19.370Z,20.93
2018-12-17T14:15:54.621Z,19.53
2018-12-17T14:18:29.259Z,20.87
2018-12-17T14:21:03.144Z,21.53
2018-12-17T14:23:31.800Z,19.63
2018-12-17T14:26:00.285Z,18.40
2018-12-17T14:28:28.664Z,18.13
2018-12-17T14:30:57.306Z,17.23
2018-12-17T14:33:26.276Z,16.53
2018-12-17T14:36:01.508Z,18.57
2018-12-17T14:38:30.578Z,15.73
2018-12-17T14:40:59.126Z,18.67
2018-12-17T14:43:27.544Z,16.37
2018-12-17T14:45:56.135Z,20.50
2018-12-17T14:48:24.826Z,18.03
2018-12-17T14:50:53.244Z,19.30
2018-12-17T14:53:22.243Z,27.87
2018-12-17T14:55:51.185Z,25.43
2018-12-17T14:58:19.658Z,22.40
2018-12-17T15:00:48.303Z,21.50
2018-12-17T15:03:17.013Z,23.50
2018-12-17T15:05:45.426Z,17.57
2018-12-17T15:08:14.050Z,20.67
2018-12-17T15:10:42.650Z,18.70
2018-12-17T15:13:11.698Z,18.40
2018-12-17T15:15:40.357Z,20.00
2018-12-17T15:18:09.861Z,18.57
2018-12-17T15:20:38.955Z,17.10
2018-12-17T15:23:07.419Z,18.43
2018-12-17T15:25:36.269Z,19.00
2018-12-17T15:28:04.766Z,18.70
2018-12-17T15:30:33.398Z,17.03
2018-12-17T15:33:02.422Z,21.37
2018-12-17T15:35:31.106Z,20.13
2018-12-17T15:38:00.080Z,20.80
2018-12-17T15:40:28.548Z,18.53
2018-12-17T15:42:56.970Z,18.57
2018-12-17T15:45:25.545Z,22.50
2018-12-17T15:47:54.205Z,18.43
2018-12-17T15:50:22.674Z,23.00
2018-12-17T15:52:51.607Z,20.63
2018-12-17T15:55:20.148Z,26.23
2018-12-17T15:57:49.553Z,25.60
2018-12-17T16:00:18.237Z,20.80
2018-12-17T16:02:46.628Z,22.90
2018-12-17T16:05:15.089Z,24.63
2018-12-17T16:07:43.644Z,23.87
2018-12-17T16:10:12.417Z,22.57
2018-12-17T16:12:41.059Z,26.03
2018-12-17T16:15:09.879Z,28.87
2018-12-17T16:17:39.014Z,25.73
2018-12-17T16:20:07.877Z,21.80
2018-12-17T16:22:36.290Z,24.57
2018-12-17T16:25:05.643Z,24.80
2018-12-17T16:27:34.360Z,24.40
2018-12-17T16:30:02.798Z,23.17
2018-12-17T16:32:31.459Z,23.67
2018-12-17T16:35:00.439Z,23.40
2018-12-17T16:37:28.891Z,20.47
2018-12-17T16:39:58.223Z,24.50
2018-12-17T16:42:26.812Z,23.30
2018-12-17T16:44:55.352Z,22.40
2018-12-17T16:47:24.044Z,20.03
2018-12-17T16:49:52.989Z,21.33
2018-12-17T16:52:22.197Z,20.70
2018-12-17T16:54:50.983Z,21.63
2018-12-17T16:57:19.592Z,23.80
2018-12-17T16:59:48.175Z,23.00
2018-12-17T17:02:16.968Z,24.70
2018-12-17T17:04:45.410Z,23.73
2018-12-17T17:07:14.251Z,30.10
2018-12-17T17:09:43.067Z,26.93
2018-12-17T17:12:11.533Z,23.23
2018-12-17T17:14:40.290Z,22.87
2018-12-17T17:17:09.006Z,24.93
2018-12-17T17:19:37.494Z,23.27
2018-12-17T17:22:06.060Z,26.43
2018-12-17T17:24:34.805Z,29.23
2018-12-17T17:27:03.790Z,29.00
2018-12-17T17:29:32.219Z,24.93
2018-12-17T17:32:00.658Z,26.47
2018-12-17T17:34:29.540Z,30.67
2018-12-17T17:36:58.264Z,29.17
2018-12-17T17:39:27.434Z,24.57
2018-12-17T17:41:56.402Z,24.50
2018-12-17T17:44:25.218Z,25.40
2018-12-17T17:46:54.161Z,28.17
2018-12-17T17:49:22.578Z,26.83
2018-12-17T17:51:51.035Z,24.30
2018-12-17T17:54:19.400Z,24.33
2018-12-17T17:56:48.381Z,22.23
2018-12-17T17:59:17.347Z,19.40
2018-12-17T18:01:46.112Z,16.40
2018-12-17T18:04:14.671Z,15.20
2018-12-17T18:06:43.105Z,14.33
2018-12-17T18:09:11.488Z,14.83
2018-12-17T18:11:40.105Z,15.07
2018-12-17T18:14:08.571Z,15.23
2018-12-17T18:16:36.932Z,15.20
2018-12-17T18:19:05.466Z,16.10
2018-12-17T18:21:33.858Z,15.57
2018-12-17T18:24:02.604Z,17.07
2018-12-17T18:26:31.522Z,19.73
2018-12-17T18:29:00.515Z,14.20
2018-12-17T18:31:28.987Z,15.17
2018-12-17T18:33:57.635Z,18.53
2018-12-17T18:36:26.174Z,17.63
2018-12-17T18:38:55.743Z,17.00
2018-12-17T18:41:24.296Z,14.93
2018-12-17T18:43:52.680Z,15.87
2018-12-17T18:46:21.118Z,17.30
2018-12-17T18:48:49.833Z,13.90
2018-12-17T18:51:18.821Z,16.87
2018-12-17T18:53:47.507Z,14.77
2018-12-17T18:56:16.119Z,16.27
2018-12-17T18:58:44.840Z,17.30
2018-12-17T19:01:13.305Z,17.23
2018-12-17T19:03:42.635Z,19.00
2018-12-17T19:06:11.473Z,17.03
2018-12-17T19:08:40.269Z,17.77
2018-12-17T19:11:09.393Z,16.57
2018-12-17T19:13:37.840Z,17.60
2018-12-17T19:16:06.262Z,19.67
2018-12-17T19:18:34.646Z,17.83
2018-12-17T19:21:03.108Z,19.83
2018-12-17T19:23:31.796Z,22.47
2018-12-17T19:26:00.994Z,21.77
2018-12-17T19:28:30.031Z,21.90
2018-12-17T19:30:58.650Z,23.07
2018-12-17T19:33:27.528Z,24.37
2018-12-17T19:35:56.437Z,25.03
2018-12-17T19:38:24.983Z,27.90
2018-12-17T19:40:53.436Z,25.47
2018-12-17T19:43:22.590Z,27.37
2018-12-17T19:45:51.433Z,28.40
2018-12-17T19:48:20.066Z,26.90
2018-12-17T19:50:48.470Z,26.33
2018-12-17T19:53:17.420Z,28.37
2018-12-17T19:55:46.057Z,32.67
2018-12-17T19:58:14.848Z,28.80
2018-12-17T20:00:43.464Z,26.33
2018-12-17T20:03:12.493Z,25.10
2018-12-17T20:05:41.199Z,26.00
2018-12-17T20:08:10.101Z,30.47
2018-12-17T20:10:38.578Z,34.43
2018-12-17T20:13:06.982Z,32.13
2018-12-17T20:15:35.935Z,33.33
2018-12-17T20:18:05.463Z,30.57
2018-12-17T20:20:34.492Z,30.77
2018-12-17T20:23:03.536Z,28.47
2018-12-17T20:25:32.475Z,31.20
2018-12-17T20:28:00.891Z,30.60
2018-12-17T20:30:29.594Z,31.83
2018-12-17T20:32:58.251Z,28.67
2018-12-17T20:35:27.625Z,27.10
2018-12-17T20:37:56.557Z,28.20
2018-12-17T20:40:25.669Z,28.67
2018-12-17T20:42:54.541Z,29.03
2018-12-17T20:45:23.511Z,30.67
2018-12-17T20:47:52.505Z,31.43
2018-12-17T20:50:21.213Z,29.93
2018-12-17T20:52:49.882Z,31.03
2018-12-17T20:55:18.263Z,32.23
2018-12-17T20:57:46.838Z,30.47
2018-12-17T21:00:16.027Z,28.67
2018-12-17T21:02:50.904Z,32.17
2018-12-17T21:05:19.621Z,29.70
2018-12-17T21:07:48.045Z,31.10
2018-12-17T21:10:19.040Z,30.93
2018-12-17T21:12:48.028Z,31.83
2018-12-17T21:15:16.878Z,32.47
2018-12-17T21:17:45.654Z,33.37
2018-12-17T21:20:15.734Z,33.47
2018-12-17T21:22:44.576Z,30.63
2018-12-17T21:25:13.266Z,30.13
2018-12-17T21:27:42.218Z,36.35
2018-12-17T21:30:10.983Z,32.27
2018-12-17T21:32:39.641Z,30.33
2018-12-17T21:35:08.282Z,29.00
2018-12-17T21:37:36.967Z,31.50
2018-12-17T21:40:06.236Z,36.43
2018-12-17T21:42:34.976Z,31.23
2018-12-17T21:45:04.526Z,29.50
2018-12-17T21:47:33.071Z,29.73
2018-12-17T21:50:01.707Z,26.80
2018-12-17T21:52:30.379Z,28.93
2018-12-17T21:54:59.321Z,28.00
2018-12-17T21:57:28.007Z,26.97
2018-12-17T21:59:56.716Z,26.07
2018-12-17T22:02:25.677Z,26.43
2018-12-17T22:04:54.396Z,28.40
2018-12-17T22:07:23.047Z,22.73
2018-12-17T22:09:51.896Z,27.77
2018-12-17T22:12:20.714Z,27.17
2018-12-17T22:14:49.239Z,25.63
2018-12-17T22:17:17.695Z,27.20
2018-12-17T22:19:46.070Z,26.27
2018-12-17T22:22:14.886Z,23.73
2018-12-17T22:24:43.553Z,23.20
2018-12-17T22:27:11.952Z,25.93
2018-12-17T22:29:40.620Z,25.97
